Flight Track Log - Related Links

Times and Time Zones

All times are in EDT time to prevent confusion due to time zone crossing. See the SWA305 flight status page for this flight to view local times or setup timezone preferences in your user account.

Time Position Orientation Groundspeed Altitude Reporting Facility
EDT Latitude Longitude Course Direction KTS MPH feet Rate Location/Type
Sun 12:25:23 PM 45.5942 -122.6194 301° West 151 174 900  Level Seattle Center
Sun 12:26:06 PM 45.6108 -122.6589 301° West 165 190 2,200 1,818 Climbing Seattle Center
Sun 12:26:29 PM 45.6211 -122.6792 306° West 191 220 2,900 2,071 Climbing Seattle Center
Sun 12:27:30 PM 45.6389 -122.7672 286° West 229 264 5,100 3,197 Climbing Seattle Center
Sun 12:28:31 PM 45.5775 -122.7658 179° South 259 298 9,400 3,590 Climbing Seattle Center
Sun 12:29:32 PM 45.5172 -122.6939 140° Southeast 281 323 12,400 3,049 Climbing Seattle Center
Sun 12:30:33 PM 45.4472 -122.6075 139° Southeast 324 373 15,600 3,000 Climbing Seattle Center
Sun 12:31:34 PM 45.3719 -122.5181 140° Southeast 347 399 18,500 3,049 Climbing Seattle Center
Sun 12:32:35 PM 45.2772 -122.4044 140° Southeast 369 425 21,800 2,951 Climbing Seattle Center
Sun 12:33:36 PM 45.1928 -122.3044 140° Southeast 388 447 24,500 2,459 Climbing Seattle Center
Sun 12:34:37 PM 45.1069 -122.2033 140° Southeast 399 459 26,800 2,066 Climbing Seattle Center
Sun 12:35:38 PM 45.0100 -122.1161 148° Southeast 411 473 28,700 1,770 Climbing Seattle Center
Sun 12:36:39 PM 44.9039 -122.0456 155° Southeast 420 483 30,400 1,918 Climbing Seattle Center
Sun 12:37:40 PM 44.7981 -121.9742 154° Southeast 422 486 32,600 2,164 Climbing Seattle Center
Sun 12:38:41 PM 44.6900 -121.9025 155° Southeast 421 484 34,800 1,180 Climbing Seattle Center
Sun 12:39:42 PM 44.5881 -121.8353 155° Southeast 412 474 35,000 98 Climbing Seattle Center
Sun 12:40:43 PM 44.4847 -121.7683 155° Southeast 411 473 35,000  Level Seattle Center
Sun 12:41:44 PM 44.3814 -121.7011 155° Southeast 411 473 35,000  Level Seattle Center
Sun 12:42:45 PM 44.2781 -121.6322 154° Southeast 413 475 35,000  Level Seattle Center
Sun 12:43:46 PM 44.1733 -121.5644 155° Southeast 415 478 35,000  Level Seattle Center
Sun 12:44:47 PM 44.0683 -121.4969 155° Southeast 417 480 35,000  Level Seattle Center
Sun 12:45:48 PM 43.9419 -121.4150 155° Southeast 419 482 35,000 197 Level Seattle Center
Sun 12:46:49 PM 43.8358 -121.3469 155° Southeast 420 483 35,400 984 Climbing Seattle Center
Sun 12:47:50 PM 43.7358 -121.2825 155° Southeast 419 482 37,000 1,328 Climbing Seattle Center
Sun 12:48:51 PM 43.6319 -121.2153 155° Southeast 414 476 38,100 984 Climbing Seattle Center
Sun 12:49:52 PM 43.5261 -121.1489 156° South 418 481 39,000 443 Climbing Seattle Center
Sun 12:50:53 PM 43.4197 -121.0794 155° Southeast 423 487 39,000  Level Seattle Center
Sun 12:51:54 PM 43.3147 -121.0136 155° Southeast 418 481 39,000  Level Seattle Center
Sun 12:52:55 PM 43.2061 -120.9447 155° Southeast 416 479 39,000  Level Seattle Center
Sun 12:53:56 PM 43.0978 -120.8922 161° South 413 475 39,000  Level Seattle Center
Sun 12:54:57 PM 42.9806 -120.8461 164° South 412 474 39,000  Level Seattle Center
Sun 12:55:58 PM 42.8703 -120.8006 163° South 412 474 39,000  Level Seattle Center
Sun 12:56:59 PM 42.7481 -120.7492 163° South 410 472 39,000  Level Seattle Center
Sun 12:58:00 PM 42.6389 -120.7036 163° South 410 472 39,000  Level Seattle Center
Sun 12:59:01 PM 42.5281 -120.6586 163° South 415 478 39,000  Level Seattle Center
Sun 01:00:02 PM 42.4183 -120.6125 163° South 414 476 39,000  Level Seattle Center
Sun 01:01:03 PM 42.3078 -120.5681 163° South 415 478 39,000  Level Seattle Center
Sun 01:02:04 PM 42.1969 -120.5250 164° South 416 479 39,000  Level Seattle Center
Sun 01:03:05 PM 42.0867 -120.4778 162° South 416 479 39,000  Level Seattle Center
Sun 01:04:06 PM 41.9622 -120.4289 164° South 415 478 39,000  Level Seattle Center
Sun 01:05:07 PM 41.8511 -120.3878 165° South 412 474 39,000  Level Seattle Center
Sun 01:06:08 PM 41.7436 -120.3458 164° South 418 481 39,000  Level Seattle Center
Sun 01:07:09 PM 41.6361 -120.3008 163° South 414 476 39,000  Level Seattle Center
Sun 01:08:10 PM 41.5233 -120.2578 164° South 419 482 39,000 -393 Level Seattle Center
Sun 01:09:11 PM 41.4067 -120.2122 164° South 418 481 38,200 -1,518 Descending Seattle Center
Sun 01:10:56 PM 41.2139 -120.1339 163° South 414 476 34,800 -2,164 Descending Oakland Center
Sun 01:11:13 PM 41.1764 -120.1217 166° South 417 480 33,800 -1,692 Descending Seattle Center
Sun 01:12:14 PM 41.0692 -120.0872 166° South 416 479 32,600 -1,082 Descending Seattle Center
Sun 01:13:15 PM 40.9375 -120.0506 168° South 430 495 31,600 -953 Descending Seattle Center
Sun 01:14:01 PM 40.8639 -120.0303 168° South 430 495 30,900 -897 Descending Oakland Center
Sun 01:15:02 PM 40.7519 -119.9967 167° South 426 490 30,000 -1,268 Descending Oakland Center
Sun 01:16:04 PM 40.6153 -119.9581 168° South 420 483 28,300 -1,951 Descending Oakland Center
Sun 01:17:05 PM 40.5061 -119.9283 168° South 407 468 26,000 -2,164 Descending Oakland Center
Sun 01:18:06 PM 40.3997 -119.8978 168° South 394 453 23,900 -2,098 Descending Oakland Center
Sun 01:19:08 PM 40.2967 -119.8692 168° South 382 440 21,700 -2,049 Descending Oakland Center
Sun 01:20:09 PM 40.1969 -119.8422 168° South 371 427 19,700 -1,951 Descending Oakland Center
Sun 01:21:11 PM 40.1028 -119.8147 167° South 352 405 17,700 -2,000 Descending Oakland Center
Sun 01:22:12 PM 40.0092 -119.7903 169° South 346 398 15,600 -2,098 Descending Oakland Center
Sun 01:23:14 PM 39.9156 -119.7700 171° South 343 395 13,400 -2,439 Descending Oakland Center
Sun 01:24:15 PM 39.8050 -119.7686 179° South 335 386 10,600 -1,659 Descending Oakland Center
Sun 01:25:17 PM 39.7231 -119.7700 181° South 312 359 10,000 -537 Descending Oakland Center
Sun 01:26:18 PM 39.6611 -119.7669 178° South 255 293 9,500 -1,122 Descending Oakland Center
Sun 01:27:20 PM 39.6161 -119.7681 181° South 199 229 7,700 -2,000 Descending Oakland Center
Sun 01:27:39 PM 39.6000 -119.7667 176° South 172 198 6,800 -1,899 Descending Northern Cal TRACON
Sun 01:28:39 PM 39.5500 -119.7667 180° South 159 183 5,200 -1,600 Descending Northern Cal TRACON
Sun 01:30:00 PM 39.4991 -119.7681 237° Southwest  Level Estimated
Sun 01:37:00 PM 39.4991 -119.7681 237° Southwest  Level Estimated

Login

Don't have an account? Register now (free) for customized features, flight alerts, and more!